sensor_id;sensor_type;location;lat;lon;timestamp;P1;P2;P0
32066;PMS7003;18573;47.890;35.066;2023-07-13T00:02:13;9.00;9.00;7.40
32066;PMS7003;18573;47.890;35.066;2023-07-13T00:04:43;9.20;9.20;7.60
32066;PMS7003;18573;47.890;35.066;2023-07-13T00:07:12;7.20;7.20;5.80
32066;PMS7003;18573;47.890;35.066;2023-07-13T00:09:41;8.20;8.20;7.20
32066;PMS7003;18573;47.890;35.066;2023-07-13T00:12:26;6.20;6.20;5.60
32066;PMS7003;18573;47.890;35.066;2023-07-13T00:14:51;8.20;8.20;7.00
32066;PMS7003;18573;47.890;35.066;2023-07-13T00:17:21;7.20;7.20;6.40
32066;PMS7003;18573;47.890;35.066;2023-07-13T00:19:50;8.40;8.40;7.40
32066;PMS7003;18573;47.890;35.066;2023-07-13T00:22:20;8.00;8.00;7.00
32066;PMS7003;18573;47.890;35.066;2023-07-13T00:24:53;6.80;6.80;5.40
32066;PMS7003;18573;47.890;35.066;2023-07-13T00:27:25;7.40;7.40;6.80
32066;PMS7003;18573;47.890;35.066;2023-07-13T00:29:56;6.20;6.20;5.40
32066;PMS7003;18573;47.890;35.066;2023-07-13T00:32:26;6.20;6.20;5.80
32066;PMS7003;18573;47.890;35.066;2023-07-13T00:34:57;8.40;8.40;7.00
32066;PMS7003;18573;47.890;35.066;2023-07-13T00:37:27;7.60;7.60;6.80
32066;PMS7003;18573;47.890;35.066;2023-07-13T00:39:58;7.00;7.00;4.60
32066;PMS7003;18573;47.890;35.066;2023-07-13T00:42:27;8.00;8.00;6.20
32066;PMS7003;18573;47.890;35.066;2023-07-13T00:47:43;9.20;9.20;7.80
32066;PMS7003;18573;47.890;35.066;2023-07-13T00:50:14;7.40;7.40;6.60
32066;PMS7003;18573;47.890;35.066;2023-07-13T00:52:46;7.80;7.80;7.20
32066;PMS7003;18573;47.890;35.066;2023-07-13T00:55:17;10.20;10.20;8.80
32066;PMS7003;18573;47.890;35.066;2023-07-13T00:57:49;7.60;7.60;6.40
32066;PMS7003;18573;47.890;35.066;2023-07-13T01:00:18;8.60;8.60;7.20
32066;PMS7003;18573;47.890;35.066;2023-07-13T01:02:50;7.60;7.60;7.60
32066;PMS7003;18573;47.890;35.066;2023-07-13T01:05:20;6.20;6.20;5.80
32066;PMS7003;18573;47.890;35.066;2023-07-13T01:07:51;7.40;7.40;6.40
32066;PMS7003;18573;47.890;35.066;2023-07-13T01:10:21;7.00;7.00;5.60
32066;PMS7003;18573;47.890;35.066;2023-07-13T01:12:51;8.80;8.80;7.80
32066;PMS7003;18573;47.890;35.066;2023-07-13T01:15:35;9.20;9.20;7.60
32066;PMS7003;18573;47.890;35.066;2023-07-13T01:18:10;7.00;7.00;5.80
32066;PMS7003;18573;47.890;35.066;2023-07-13T01:20:54;7.40;7.40;7.00
32066;PMS7003;18573;47.890;35.066;2023-07-13T01:23:26;6.40;6.40;5.60
32066;PMS7003;18573;47.890;35.066;2023-07-13T01:25:56;9.20;9.20;8.00
32066;PMS7003;18573;47.890;35.066;2023-07-13T01:28:26;7.00;7.00;6.00
32066;PMS7003;18573;47.890;35.066;2023-07-13T01:30:57;6.40;6.40;5.80
32066;PMS7003;18573;47.890;35.066;2023-07-13T01:33:27;6.20;6.20;5.40
32066;PMS7003;18573;47.890;35.066;2023-07-13T01:35:56;6.20;6.20;5.20
32066;PMS7003;18573;47.890;35.066;2023-07-13T01:38:26;6.00;6.00;5.40
32066;PMS7003;18573;47.890;35.066;2023-07-13T01:40:55;4.60;4.60;4.40
32066;PMS7003;18573;47.890;35.066;2023-07-13T01:43:24;7.60;7.60;6.60
32066;PMS7003;18573;47.890;35.066;2023-07-13T01:45:53;6.00;6.00;5.00
32066;PMS7003;18573;47.890;35.066;2023-07-13T01:48:24;8.20;8.20;7.20
32066;PMS7003;18573;47.890;35.066;2023-07-13T01:50:53;7.00;7.00;5.60
32066;PMS7003;18573;47.890;35.066;2023-07-13T01:53:22;8.00;8.00;6.00
32066;PMS7003;18573;47.890;35.066;2023-07-13T01:55:51;7.20;7.20;6.00
32066;PMS7003;18573;47.890;35.066;2023-07-13T01:58:20;12.00;12.00;10.40
32066;PMS7003;18573;47.890;35.066;2023-07-13T02:00:50;14.40;14.40;12.60
32066;PMS7003;18573;47.890;35.066;2023-07-13T02:03:20;9.20;9.20;7.60
32066;PMS7003;18573;47.890;35.066;2023-07-13T02:05:49;10.40;10.40;9.00
32066;PMS7003;18573;47.890;35.066;2023-07-13T02:08:18;13.60;13.60;10.00
32066;PMS7003;18573;47.890;35.066;2023-07-13T02:10:47;11.40;11.40;9.60
32066;PMS7003;18573;47.890;35.066;2023-07-13T02:13:17;12.60;12.60;10.80
32066;PMS7003;18573;47.890;35.066;2023-07-13T02:15:49;10.80;10.80;9.80
32066;PMS7003;18573;47.890;35.066;2023-07-13T02:18:20;11.00;11.00;8.20
32066;PMS7003;18573;47.890;35.066;2023-07-13T02:20:49;16.00;16.00;12.00
32066;PMS7003;18573;47.890;35.066;2023-07-13T02:23:18;12.60;12.60;10.20
32066;PMS7003;18573;47.890;35.066;2023-07-13T02:25:48;14.80;14.80;11.80
32066;PMS7003;18573;47.890;35.066;2023-07-13T02:28:17;12.80;12.80;9.80
32066;PMS7003;18573;47.890;35.066;2023-07-13T02:30:46;13.80;13.80;11.60
32066;PMS7003;18573;47.890;35.066;2023-07-13T02:33:16;10.60;10.60;8.40
32066;PMS7003;18573;47.890;35.066;2023-07-13T02:35:45;12.40;12.40;9.80
32066;PMS7003;18573;47.890;35.066;2023-07-13T02:38:14;10.00;10.00;9.80
32066;PMS7003;18573;47.890;35.066;2023-07-13T02:40:43;14.00;14.00;11.00
32066;PMS7003;18573;47.890;35.066;2023-07-13T02:43:14;13.00;13.00;11.00
32066;PMS7003;18573;47.890;35.066;2023-07-13T02:45:43;14.60;14.60;12.80
32066;PMS7003;18573;47.890;35.066;2023-07-13T02:48:13;13.80;13.80;11.20
32066;PMS7003;18573;47.890;35.066;2023-07-13T02:50:43;13.40;13.40;10.80
32066;PMS7003;18573;47.890;35.066;2023-07-13T02:53:13;12.60;12.60;9.60
32066;PMS7003;18573;47.890;35.066;2023-07-13T02:55:42;11.40;11.40;8.80
32066;PMS7003;18573;47.890;35.066;2023-07-13T02:58:13;12.40;12.40;9.60
32066;PMS7003;18573;47.890;35.066;2023-07-13T03:00:44;13.40;13.40;10.20
32066;PMS7003;18573;47.890;35.066;2023-07-13T03:03:14;9.60;9.60;9.00
32066;PMS7003;18573;47.890;35.066;2023-07-13T03:05:44;11.80;11.80;9.00
32066;PMS7003;18573;47.890;35.066;2023-07-13T03:08:15;13.00;13.00;11.80
32066;PMS7003;18573;47.890;35.066;2023-07-13T03:10:45;12.40;12.40;10.80
32066;PMS7003;18573;47.890;35.066;2023-07-13T03:13:14;11.00;11.00;9.80
32066;PMS7003;18573;47.890;35.066;2023-07-13T03:15:43;12.40;12.40;9.80
32066;PMS7003;18573;47.890;35.066;2023-07-13T03:18:14;11.40;11.40;9.60
32066;PMS7003;18573;47.890;35.066;2023-07-13T03:20:43;10.20;10.20;8.00
32066;PMS7003;18573;47.890;35.066;2023-07-13T03:23:12;8.20;8.20;7.80
32066;PMS7003;18573;47.890;35.066;2023-07-13T03:25:41;10.20;10.20;7.80
32066;PMS7003;18573;47.890;35.066;2023-07-13T03:28:11;11.00;10.00;8.20
32066;PMS7003;18573;47.890;35.066;2023-07-13T03:30:41;9.00;9.00;8.00
32066;PMS7003;18573;47.890;35.066;2023-07-13T03:33:10;10.20;10.20;8.80
32066;PMS7003;18573;47.890;35.066;2023-07-13T03:35:40;9.40;9.40;7.80
32066;PMS7003;18573;47.890;35.066;2023-07-13T03:38:09;8.00;8.00;7.20
32066;PMS7003;18573;47.890;35.066;2023-07-13T03:40:38;8.20;8.20;7.20
32066;PMS7003;18573;47.890;35.066;2023-07-13T03:43:08;9.60;9.60;8.20
32066;PMS7003;18573;47.890;35.066;2023-07-13T03:45:39;9.80;9.80;8.00
32066;PMS7003;18573;47.890;35.066;2023-07-13T03:48:09;8.60;8.60;6.80
32066;PMS7003;18573;47.890;35.066;2023-07-13T03:50:38;9.60;9.60;7.40
32066;PMS7003;18573;47.890;35.066;2023-07-13T03:53:09;11.00;11.00;9.60
32066;PMS7003;18573;47.890;35.066;2023-07-13T03:55:38;11.60;11.60;10.00
32066;PMS7003;18573;47.890;35.066;2023-07-13T03:58:27;10.20;10.20;9.40
32066;PMS7003;18573;47.890;35.066;2023-07-13T04:01:04;10.00;10.00;9.00
32066;PMS7003;18573;47.890;35.066;2023-07-13T04:03:35;11.00;11.00;8.40
32066;PMS7003;18573;47.890;35.066;2023-07-13T04:06:06;11.80;11.80;10.20
32066;PMS7003;18573;47.890;35.066;2023-07-13T04:08:37;11.80;11.80;10.00
32066;PMS7003;18573;47.890;35.066;2023-07-13T04:11:06;10.60;10.60;9.00
32066;PMS7003;18573;47.890;35.066;2023-07-13T04:13:36;10.80;10.80;10.80
32066;PMS7003;18573;47.890;35.066;2023-07-13T04:16:06;14.00;14.00;11.60
32066;PMS7003;18573;47.890;35.066;2023-07-13T04:18:36;12.20;12.20;10.40
32066;PMS7003;18573;47.890;35.066;2023-07-13T04:21:05;19.20;18.00;14.40
32066;PMS7003;18573;47.890;35.066;2023-07-13T04:23:34;48.40;41.00;25.60
32066;PMS7003;18573;47.890;35.066;2023-07-13T04:26:04;57.00;44.80;26.60
32066;PMS7003;18573;47.890;35.066;2023-07-13T04:28:35;55.40;45.80;27.00
32066;PMS7003;18573;47.890;35.066;2023-07-13T04:31:04;51.80;43.40;26.00
32066;PMS7003;18573;47.890;35.066;2023-07-13T04:33:33;52.60;43.40;26.80
32066;PMS7003;18573;47.890;35.066;2023-07-13T04:36:03;51.60;42.40;26.40
32066;PMS7003;18573;47.890;35.066;2023-07-13T04:38:35;50.20;41.80;25.60
32066;PMS7003;18573;47.890;35.066;2023-07-13T04:41:06;51.00;42.60;26.80
32066;PMS7003;18573;47.890;35.066;2023-07-13T04:43:36;58.80;48.60;29.20
32066;PMS7003;18573;47.890;35.066;2023-07-13T04:46:06;55.60;45.20;27.60
32066;PMS7003;18573;47.890;35.066;2023-07-13T04:48:39;51.40;43.20;25.20
32066;PMS7003;18573;47.890;35.066;2023-07-13T04:51:09;47.40;40.00;25.60
32066;PMS7003;18573;47.890;35.066;2023-07-13T04:53:38;45.40;38.40;24.80
32066;PMS7003;18573;47.890;35.066;2023-07-13T04:56:08;47.80;40.00;25.80
32066;PMS7003;18573;47.890;35.066;2023-07-13T04:58:37;49.40;41.40;25.80
32066;PMS7003;18573;47.890;35.066;2023-07-13T05:01:07;51.60;43.00;26.20
32066;PMS7003;18573;47.890;35.066;2023-07-13T05:03:38;51.00;41.60;26.80
32066;PMS7003;18573;47.890;35.066;2023-07-13T05:06:07;45.00;38.80;26.40
32066;PMS7003;18573;47.890;35.066;2023-07-13T05:08:41;46.60;39.80;26.00
32066;PMS7003;18573;47.890;35.066;2023-07-13T05:11:10;51.40;43.00;27.80
32066;PMS7003;18573;47.890;35.066;2023-07-13T05:13:40;52.80;43.40;27.40
32066;PMS7003;18573;47.890;35.066;2023-07-13T05:16:09;45.20;38.20;25.80
32066;PMS7003;18573;47.890;35.066;2023-07-13T05:18:38;48.60;40.40;27.00
32066;PMS7003;18573;47.890;35.066;2023-07-13T05:21:09;48.60;41.20;26.60
32066;PMS7003;18573;47.890;35.066;2023-07-13T05:23:40;48.20;41.00;26.00
32066;PMS7003;18573;47.890;35.066;2023-07-13T05:26:09;43.80;38.00;23.40
32066;PMS7003;18573;47.890;35.066;2023-07-13T05:28:39;43.00;36.20;23.20
32066;PMS7003;18573;47.890;35.066;2023-07-13T05:31:09;36.00;33.00;21.00
32066;PMS7003;18573;47.890;35.066;2023-07-13T05:33:39;38.60;34.20;22.60
32066;PMS7003;18573;47.890;35.066;2023-07-13T05:36:09;22.00;22.00;16.60
32066;PMS7003;18573;47.890;35.066;2023-07-13T05:38:38;26.80;26.80;17.20
32066;PMS7003;18573;47.890;35.066;2023-07-13T05:41:07;33.00;30.80;20.00
32066;PMS7003;18573;47.890;35.066;2023-07-13T05:43:37;25.40;25.40;17.20
32066;PMS7003;18573;47.890;35.066;2023-07-13T05:46:06;23.00;23.00;18.00
32066;PMS7003;18573;47.890;35.066;2023-07-13T05:48:35;16.80;15.60;11.00
32066;PMS7003;18573;47.890;35.066;2023-07-13T05:51:05;21.40;17.60;14.00
32066;PMS7003;18573;47.890;35.066;2023-07-13T05:53:34;20.40;20.40;14.00
32066;PMS7003;18573;47.890;35.066;2023-07-13T05:56:03;21.60;21.60;14.00
32066;PMS7003;18573;47.890;35.066;2023-07-13T05:58:33;9.00;9.00;4.40
32066;PMS7003;18573;47.890;35.066;2023-07-13T06:01:04;17.40;17.40;13.80
32066;PMS7003;18573;47.890;35.066;2023-07-13T06:03:34;16.20;16.20;11.80
32066;PMS7003;18573;47.890;35.066;2023-07-13T06:06:05;17.20;17.20;13.60
32066;PMS7003;18573;47.890;35.066;2023-07-13T06:08:36;15.80;15.80;12.00
32066;PMS7003;18573;47.890;35.066;2023-07-13T06:11:20;15.60;15.60;12.00
32066;PMS7003;18573;47.890;35.066;2023-07-13T06:13:49;10.60;10.60;8.20
32066;PMS7003;18573;47.890;35.066;2023-07-13T06:16:18;15.00;15.00;12.60
32066;PMS7003;18573;47.890;35.066;2023-07-13T06:18:48;15.80;14.40;10.40
32066;PMS7003;18573;47.890;35.066;2023-07-13T06:21:18;14.40;14.40;13.00
32066;PMS7003;18573;47.890;35.066;2023-07-13T06:23:50;14.40;14.40;10.80
32066;PMS7003;18573;47.890;35.066;2023-07-13T06:26:20;12.00;12.00;10.00
32066;PMS7003;18573;47.890;35.066;2023-07-13T06:28:49;11.60;11.60;9.20
32066;PMS7003;18573;47.890;35.066;2023-07-13T06:31:19;12.20;12.20;10.40
32066;PMS7003;18573;47.890;35.066;2023-07-13T06:33:48;11.80;11.80;9.60
32066;PMS7003;18573;47.890;35.066;2023-07-13T06:36:17;10.80;10.80;8.80
32066;PMS7003;18573;47.890;35.066;2023-07-13T06:38:47;8.80;8.80;7.60
32066;PMS7003;18573;47.890;35.066;2023-07-13T06:41:17;11.80;11.80;9.80
32066;PMS7003;18573;47.890;35.066;2023-07-13T06:43:46;10.60;10.60;7.80
32066;PMS7003;18573;47.890;35.066;2023-07-13T06:46:15;8.20;8.20;7.20
32066;PMS7003;18573;47.890;35.066;2023-07-13T06:48:44;10.20;10.20;7.80
32066;PMS7003;18573;47.890;35.066;2023-07-13T06:51:13;9.00;9.00;7.80
32066;PMS7003;18573;47.890;35.066;2023-07-13T06:53:42;10.40;10.40;8.20
32066;PMS7003;18573;47.890;35.066;2023-07-13T06:56:12;10.80;10.80;9.20
32066;PMS7003;18573;47.890;35.066;2023-07-13T06:58:41;9.00;9.00;7.00
32066;PMS7003;18573;47.890;35.066;2023-07-13T07:01:10;7.00;7.00;5.80
32066;PMS7003;18573;47.890;35.066;2023-07-13T07:03:40;12.00;12.00;10.20
32066;PMS7003;18573;47.890;35.066;2023-07-13T07:06:14;7.80;7.80;7.00
32066;PMS7003;18573;47.890;35.066;2023-07-13T07:08:49;9.20;9.20;7.80
32066;PMS7003;18573;47.890;35.066;2023-07-13T07:11:20;7.20;7.20;6.20
32066;PMS7003;18573;47.890;35.066;2023-07-13T07:13:51;7.60;7.60;6.40
32066;PMS7003;18573;47.890;35.066;2023-07-13T07:16:21;8.60;8.60;7.00
32066;PMS7003;18573;47.890;35.066;2023-07-13T07:18:52;6.20;6.20;6.00
32066;PMS7003;18573;47.890;35.066;2023-07-13T07:21:21;7.20;7.20;5.40
32066;PMS7003;18573;47.890;35.066;2023-07-13T07:23:51;6.00;6.00;5.80
32066;PMS7003;18573;47.890;35.066;2023-07-13T07:26:20;6.00;6.00;4.60
32066;PMS7003;18573;47.890;35.066;2023-07-13T07:28:51;6.00;6.00;5.60
32066;PMS7003;18573;47.890;35.066;2023-07-13T07:31:22;6.40;6.40;5.40
32066;PMS7003;18573;47.890;35.066;2023-07-13T07:33:53;7.20;7.20;7.00
32066;PMS7003;18573;47.890;35.066;2023-07-13T07:36:22;6.40;6.40;6.00
32066;PMS7003;18573;47.890;35.066;2023-07-13T07:38:53;7.20;7.20;6.20
32066;PMS7003;18573;47.890;35.066;2023-07-13T07:41:22;5.80;5.80;5.00
32066;PMS7003;18573;47.890;35.066;2023-07-13T07:43:53;3.20;3.20;3.20
32066;PMS7003;18573;47.890;35.066;2023-07-13T07:46:22;6.00;6.00;5.20
32066;PMS7003;18573;47.890;35.066;2023-07-13T07:48:52;6.80;6.80;5.40
32066;PMS7003;18573;47.890;35.066;2023-07-13T07:51:22;4.00;4.00;3.00
32066;PMS7003;18573;47.890;35.066;2023-07-13T07:53:52;4.20;4.20;4.00
32066;PMS7003;18573;47.890;35.066;2023-07-13T07:56:22;4.60;4.60;4.20
32066;PMS7003;18573;47.890;35.066;2023-07-13T07:58:53;7.00;7.00;6.00
32066;PMS7003;18573;47.890;35.066;2023-07-13T08:01:24;4.60;4.60;4.40
32066;PMS7003;18573;47.890;35.066;2023-07-13T08:03:55;6.60;6.60;5.00
32066;PMS7003;18573;47.890;35.066;2023-07-13T08:06:26;6.40;6.40;5.20
32066;PMS7003;18573;47.890;35.066;2023-07-13T08:08:58;5.20;5.20;4.80
32066;PMS7003;18573;47.890;35.066;2023-07-13T08:11:28;6.00;6.00;5.00
32066;PMS7003;18573;47.890;35.066;2023-07-13T08:13:59;5.20;5.20;4.60
32066;PMS7003;18573;47.890;35.066;2023-07-13T08:16:28;7.00;7.00;5.80
32066;PMS7003;18573;47.890;35.066;2023-07-13T08:18:59;5.80;5.80;5.40
32066;PMS7003;18573;47.890;35.066;2023-07-13T08:21:28;3.40;3.40;2.00
32066;PMS7003;18573;47.890;35.066;2023-07-13T08:23:58;5.40;5.40;4.20
32066;PMS7003;18573;47.890;35.066;2023-07-13T08:26:27;7.20;7.20;6.20
32066;PMS7003;18573;47.890;35.066;2023-07-13T08:28:56;4.00;4.00;3.40
32066;PMS7003;18573;47.890;35.066;2023-07-13T08:31:25;4.60;4.60;4.00
32066;PMS7003;18573;47.890;35.066;2023-07-13T08:33:55;6.80;6.80;6.00
32066;PMS7003;18573;47.890;35.066;2023-07-13T08:36:25;5.80;5.80;4.80
32066;PMS7003;18573;47.890;35.066;2023-07-13T08:38:54;8.00;8.00;6.20
32066;PMS7003;18573;47.890;35.066;2023-07-13T08:41:23;6.00;6.00;5.00
32066;PMS7003;18573;47.890;35.066;2023-07-13T08:43:56;7.80;7.80;6.80
32066;PMS7003;18573;47.890;35.066;2023-07-13T08:49:03;7.00;7.00;5.80
32066;PMS7003;18573;47.890;35.066;2023-07-13T08:51:49;5.20;5.20;5.00
32066;PMS7003;18573;47.890;35.066;2023-07-13T08:54:21;5.00;5.00;4.80
32066;PMS7003;18573;47.890;35.066;2023-07-13T08:56:53;5.20;5.20;4.60
32066;PMS7003;18573;47.890;35.066;2023-07-13T08:59:24;8.40;8.40;6.60
32066;PMS7003;18573;47.890;35.066;2023-07-13T09:02:00;5.00;5.00;5.00
32066;PMS7003;18573;47.890;35.066;2023-07-13T09:10:41;4.80;4.80;4.00
32066;PMS7003;18573;47.890;35.066;2023-07-13T09:13:19;6.00;6.00;4.60
32066;PMS7003;18573;47.890;35.066;2023-07-13T09:15:47;6.00;6.00;4.60
32066;PMS7003;18573;47.890;35.066;2023-07-13T09:18:20;4.60;4.60;4.00
32066;PMS7003;18573;47.890;35.066;2023-07-13T09:21:02;5.80;5.80;5.00
32066;PMS7003;18573;47.890;35.066;2023-07-13T09:23:45;6.80;6.80;5.60
32066;PMS7003;18573;47.890;35.066;2023-07-13T09:26:21;6.40;6.40;5.40
32066;PMS7003;18573;47.890;35.066;2023-07-13T09:28:52;6.00;6.00;5.60
32066;PMS7003;18573;47.890;35.066;2023-07-13T09:31:29;6.80;6.80;5.60
32066;PMS7003;18573;47.890;35.066;2023-07-13T09:34:08;5.60;5.60;5.00
32066;PMS7003;18573;47.890;35.066;2023-07-13T09:36:36;7.20;7.20;6.20
32066;PMS7003;18573;47.890;35.066;2023-07-13T09:41:59;7.00;7.00;6.00
32066;PMS7003;18573;47.890;35.066;2023-07-13T09:47:27;6.20;6.20;6.00
32066;PMS7003;18573;47.890;35.066;2023-07-13T09:50:03;7.00;7.00;6.00
32066;PMS7003;18573;47.890;35.066;2023-07-13T09:52:41;7.20;7.20;6.00
32066;PMS7003;18573;47.890;35.066;2023-07-13T09:58:16;6.60;6.60;5.60
32066;PMS7003;18573;47.890;35.066;2023-07-13T10:00:54;18.60;15.00;9.60
32066;PMS7003;18573;47.890;35.066;2023-07-13T10:03:26;25.60;25.20;14.60
32066;PMS7003;18573;47.890;35.066;2023-07-13T10:06:16;10.20;10.20;8.40
32066;PMS7003;18573;47.890;35.066;2023-07-13T10:08:48;8.60;8.00;7.00
32066;PMS7003;18573;47.890;35.066;2023-07-13T10:11:20;9.60;9.60;8.60
32066;PMS7003;18573;47.890;35.066;2023-07-13T10:14:02;7.00;7.00;6.00
32066;PMS7003;18573;47.890;35.066;2023-07-13T10:16:31;7.20;7.20;6.00
32066;PMS7003;18573;47.890;35.066;2023-07-13T10:19:02;6.00;6.00;5.60
32066;PMS7003;18573;47.890;35.066;2023-07-13T10:21:39;7.40;7.40;6.60
32066;PMS7003;18573;47.890;35.066;2023-07-13T10:24:15;7.20;7.20;6.40
32066;PMS7003;18573;47.890;35.066;2023-07-13T10:26:52;6.40;6.40;5.40
32066;PMS7003;18573;47.890;35.066;2023-07-13T10:29:43;8.20;8.20;6.60
32066;PMS7003;18573;47.890;35.066;2023-07-13T10:32:11;6.60;6.60;5.60
32066;PMS7003;18573;47.890;35.066;2023-07-13T10:34:42;9.20;9.20;7.20
32066;PMS7003;18573;47.890;35.066;2023-07-13T10:37:26;6.40;6.40;5.80
32066;PMS7003;18573;47.890;35.066;2023-07-13T10:39:54;8.80;8.80;7.60
32066;PMS7003;18573;47.890;35.066;2023-07-13T10:42:48;5.80;5.60;4.40
32066;PMS7003;18573;47.890;35.066;2023-07-13T10:45:11;7.20;7.20;6.60
32066;PMS7003;18573;47.890;35.066;2023-07-13T10:47:41;7.00;7.00;6.20
32066;PMS7003;18573;47.890;35.066;2023-07-13T10:50:17;5.60;5.60;5.60
32066;PMS7003;18573;47.890;35.066;2023-07-13T10:52:48;7.80;7.80;6.60
32066;PMS7003;18573;47.890;35.066;2023-07-13T10:55:30;6.80;6.80;6.20
32066;PMS7003;18573;47.890;35.066;2023-07-13T10:58:18;6.00;6.00;5.20
32066;PMS7003;18573;47.890;35.066;2023-07-13T11:03:46;4.60;4.60;4.00
32066;PMS7003;18573;47.890;35.066;2023-07-13T11:06:28;7.40;7.40;7.00
32066;PMS7003;18573;47.890;35.066;2023-07-13T11:08:59;5.00;5.00;4.60
32066;PMS7003;18573;47.890;35.066;2023-07-13T11:11:47;6.40;6.40;5.60
32066;PMS7003;18573;47.890;35.066;2023-07-13T11:20:19;7.00;7.00;6.00
32066;PMS7003;18573;47.890;35.066;2023-07-13T11:22:45;5.00;5.00;4.20
32066;PMS7003;18573;47.890;35.066;2023-07-13T11:25:29;7.20;7.00;6.00
32066;PMS7003;18573;47.890;35.066;2023-07-13T11:28:05;5.40;5.40;4.40
32066;PMS7003;18573;47.890;35.066;2023-07-13T11:30:38;6.00;6.00;5.80
32066;PMS7003;18573;47.890;35.066;2023-07-13T11:33:16;4.80;4.80;4.80
32066;PMS7003;18573;47.890;35.066;2023-07-13T11:35:59;4.20;4.20;3.80
32066;PMS7003;18573;47.890;35.066;2023-07-13T11:38:38;5.00;5.00;4.20
32066;PMS7003;18573;47.890;35.066;2023-07-13T11:41:16;7.00;7.00;6.20
32066;PMS7003;18573;47.890;35.066;2023-07-13T11:43:54;8.40;8.40;6.80
32066;PMS7003;18573;47.890;35.066;2023-07-13T11:46:26;6.40;6.40;5.80
32066;PMS7003;18573;47.890;35.066;2023-07-13T11:48:56;5.40;5.40;5.20
32066;PMS7003;18573;47.890;35.066;2023-07-13T11:51:26;7.00;7.00;6.00
32066;PMS7003;18573;47.890;35.066;2023-07-13T11:54:06;6.00;6.00;5.00
32066;PMS7003;18573;47.890;35.066;2023-07-13T11:56:37;4.20;4.20;4.00
32066;PMS7003;18573;47.890;35.066;2023-07-13T11:59:07;6.00;6.00;6.00
32066;PMS7003;18573;47.890;35.066;2023-07-13T12:01:44;5.80;5.80;4.80
32066;PMS7003;18573;47.890;35.066;2023-07-13T12:04:25;4.80;4.80;4.00
32066;PMS7003;18573;47.890;35.066;2023-07-13T12:06:57;4.80;4.80;4.00
32066;PMS7003;18573;47.890;35.066;2023-07-13T12:09:28;6.60;6.60;5.80
32066;PMS7003;18573;47.890;35.066;2023-07-13T12:11:58;7.00;7.00;6.20
32066;PMS7003;18573;47.890;35.066;2023-07-13T12:14:33;5.20;5.20;4.20
32066;PMS7003;18573;47.890;35.066;2023-07-13T12:17:04;3.00;3.00;2.00
32066;PMS7003;18573;47.890;35.066;2023-07-13T12:19:47;4.80;4.80;4.40
32066;PMS7003;18573;47.890;35.066;2023-07-13T12:22:19;6.60;6.60;6.00
32066;PMS7003;18573;47.890;35.066;2023-07-13T12:24:50;4.40;4.40;3.60
32066;PMS7003;18573;47.890;35.066;2023-07-13T12:27:23;5.00;5.00;4.20
32066;PMS7003;18573;47.890;35.066;2023-07-13T12:29:58;5.00;5.00;4.80
32066;PMS7003;18573;47.890;35.066;2023-07-13T12:32:30;6.60;6.60;6.00
32066;PMS7003;18573;47.890;35.066;2023-07-13T12:36:02;7.80;7.00;4.80
32066;PMS7003;18573;47.890;35.066;2023-07-13T12:37:48;6.80;6.80;6.00
32066;PMS7003;18573;47.890;35.066;2023-07-13T12:40:20;5.40;5.40;5.20
32066;PMS7003;18573;47.890;35.066;2023-07-13T12:42:52;5.40;5.40;4.60
32066;PMS7003;18573;47.890;35.066;2023-07-13T12:45:24;7.00;7.00;5.80
32066;PMS7003;18573;47.890;35.066;2023-07-13T12:47:57;6.60;6.60;5.00
32066;PMS7003;18573;47.890;35.066;2023-07-13T12:50:30;7.80;7.80;6.40
32066;PMS7003;18573;47.890;35.066;2023-07-13T12:53:02;8.00;8.00;6.20
32066;PMS7003;18573;47.890;35.066;2023-07-13T12:55:41;9.60;9.60;8.60
32066;PMS7003;18573;47.890;35.066;2023-07-13T12:58:22;18.00;18.00;12.80
32066;PMS7003;18573;47.890;35.066;2023-07-13T13:00:59;18.60;18.60;13.60
32066;PMS7003;18573;47.890;35.066;2023-07-13T13:03:33;14.40;14.40;12.00
32066;PMS7003;18573;47.890;35.066;2023-07-13T13:06:28;8.00;8.00;6.40
32066;PMS7003;18573;47.890;35.066;2023-07-13T13:08:47;9.00;9.00;7.80
32066;PMS7003;18573;47.890;35.066;2023-07-13T13:11:19;8.80;8.80;7.00
32066;PMS7003;18573;47.890;35.066;2023-07-13T13:13:50;9.00;9.00;7.00
32066;PMS7003;18573;47.890;35.066;2023-07-13T13:19:15;7.80;7.80;7.00
32066;PMS7003;18573;47.890;35.066;2023-07-13T13:21:53;5.60;5.60;5.20
32066;PMS7003;18573;47.890;35.066;2023-07-13T13:24:26;5.20;5.20;5.20
32066;PMS7003;18573;47.890;35.066;2023-07-13T13:26:56;6.60;6.60;6.00
32066;PMS7003;18573;47.890;35.066;2023-07-13T13:29:25;7.80;7.80;6.40
32066;PMS7003;18573;47.890;35.066;2023-07-13T13:31:55;7.80;7.80;6.60
32066;PMS7003;18573;47.890;35.066;2023-07-13T13:34:25;5.80;5.80;5.20
32066;PMS7003;18573;47.890;35.066;2023-07-13T13:36:54;4.80;4.80;4.20
32066;PMS7003;18573;47.890;35.066;2023-07-13T13:39:30;5.00;5.00;4.00
32066;PMS7003;18573;47.890;35.066;2023-07-13T13:42:00;4.60;4.60;4.60
32066;PMS7003;18573;47.890;35.066;2023-07-13T13:44:29;3.80;3.80;3.20
32066;PMS7003;18573;47.890;35.066;2023-07-13T13:46:58;5.80;5.80;5.80
32066;PMS7003;18573;47.890;35.066;2023-07-13T13:49:27;5.00;5.00;4.20
32066;PMS7003;18573;47.890;35.066;2023-07-13T13:51:57;5.40;5.40;5.20
32066;PMS7003;18573;47.890;35.066;2023-07-13T13:54:27;4.40;4.40;3.80
32066;PMS7003;18573;47.890;35.066;2023-07-13T13:56:56;7.40;7.40;5.80
32066;PMS7003;18573;47.890;35.066;2023-07-13T13:59:26;5.40;5.40;4.20
32066;PMS7003;18573;47.890;35.066;2023-07-13T14:01:56;5.00;5.00;4.40
32066;PMS7003;18573;47.890;35.066;2023-07-13T14:04:28;7.00;7.00;6.00
32066;PMS7003;18573;47.890;35.066;2023-07-13T14:06:58;7.40;7.40;6.00
32066;PMS7003;18573;47.890;35.066;2023-07-13T14:09:27;8.20;8.20;7.20
32066;PMS7003;18573;47.890;35.066;2023-07-13T14:11:57;7.00;7.00;6.00
32066;PMS7003;18573;47.890;35.066;2023-07-13T14:14:26;7.80;7.80;6.60
32066;PMS7003;18573;47.890;35.066;2023-07-13T14:16:57;7.20;7.20;6.00
32066;PMS7003;18573;47.890;35.066;2023-07-13T14:19:26;6.00;6.00;5.20
32066;PMS7003;18573;47.890;35.066;2023-07-13T14:21:55;5.00;5.00;4.00
32066;PMS7003;18573;47.890;35.066;2023-07-13T14:24:25;6.80;6.80;6.00
32066;PMS7003;18573;47.890;35.066;2023-07-13T14:26:54;9.00;9.00;6.80
32066;PMS7003;18573;47.890;35.066;2023-07-13T14:29:24;7.20;7.20;5.40
32066;PMS7003;18573;47.890;35.066;2023-07-13T14:31:54;6.20;6.20;5.40
32066;PMS7003;18573;47.890;35.066;2023-07-13T14:34:23;6.00;6.00;5.00
32066;PMS7003;18573;47.890;35.066;2023-07-13T14:36:53;6.60;6.60;6.00
32066;PMS7003;18573;47.890;35.066;2023-07-13T14:39:23;6.20;6.20;5.40
32066;PMS7003;18573;47.890;35.066;2023-07-13T14:41:54;7.40;7.40;6.40
32066;PMS7003;18573;47.890;35.066;2023-07-13T14:44:30;11.00;11.00;10.00
32066;PMS7003;18573;47.890;35.066;2023-07-13T14:46:57;8.40;8.40;8.20
32066;PMS7003;18573;47.890;35.066;2023-07-13T14:49:32;7.20;7.20;6.00
32066;PMS7003;18573;47.890;35.066;2023-07-13T14:52:18;6.60;6.60;5.00
32066;PMS7003;18573;47.890;35.066;2023-07-13T14:54:51;7.20;7.20;6.20
32066;PMS7003;18573;47.890;35.066;2023-07-13T14:57:20;5.80;5.80;5.40